Time;durP1;ratioP1;P1;durP2;ratioP2;P2;SDS_P1;SDS_P2;PMS_P1;PMS_P2;Temp;Humidity;BMP_temperature;BMP_pressure;BME280_temperature;BME280_humidity;BME280_pressure;Samples;Min_cycle;Max_cycle;Signal;HPM_P1;HPM_P2
2022/03/14 00:00:44;;;;;;;20.87;14.43;;;;;;;8.25;88.49;99120.03;5156195;27;20198;-80
2022/03/14 00:03:13;;;;;;;20.67;14.70;;;;;;;8.17;86.96;99124.88;5156665;27;20197;-80
2022/03/14 00:05:42;;;;;;;21.50;14.43;;;;;;;8.16;87.54;99125.81;5092442;28;20199;-79
2022/03/14 00:08:14;;;;;;;25.77;15.40;;;;;;;8.14;88.09;99121.56;5088191;28;20188;-79
2022/03/14 00:10:45;;;;;;;19.97;13.37;;;;;;;8.22;87.79;99117.56;5085685;28;20188;-79
2022/03/14 00:13:16;;;;;;;18.83;13.20;;;;;;;8.24;87.59;99131.53;5087461;28;20654;-79
2022/03/14 00:15:45;;;;;;;15.37;12.10;;;;;;;8.10;91.49;99128.78;5092176;28;20215;-79
2022/03/14 00:18:18;;;;;;;19.53;12.40;;;;;;;8.18;94.16;99128.38;4992456;28;20201;-79
2022/03/14 00:20:48;;;;;;;17.13;12.17;;;;;;;7.88;96.46;99129.09;4990921;28;20218;-79
2022/03/14 00:23:19;;;;;;;18.50;13.30;;;;;;;7.89;94.91;99132.56;5005051;28;20196;-79
2022/03/14 00:25:47;;;;;;;21.83;12.93;;;;;;;8.02;92.24;99126.56;4955507;28;20261;-79
2022/03/14 00:28:18;;;;;;;17.83;12.83;;;;;;;8.02;86.34;99134.50;4952242;28;20196;-77
2022/03/14 00:30:47;;;;;;;20.53;13.03;;;;;;;8.28;79.92;99150.66;4955537;28;20204;-77
2022/03/14 00:33:16;;;;;;;16.83;12.70;;;;;;;8.16;78.69;99146.06;4955588;28;20195;-77
2022/03/14 00:35:45;;;;;;;20.00;12.63;;;;;;;8.17;76.10;99142.50;4976551;28;20260;-78
2022/03/14 00:38:16;;;;;;;21.50;13.77;;;;;;;8.28;75.75;99142.75;5052356;28;20201;-78
2022/03/14 00:40:44;;;;;;;19.83;13.40;;;;;;;8.46;75.65;99148.84;5049808;28;20224;-78
2022/03/14 00:43:15;;;;;;;16.90;11.77;;;;;;;8.41;82.06;99156.19;5046203;28;20641;-79
2022/03/14 00:45:46;;;;;;;17.57;11.93;;;;;;;8.39;88.33;99156.25;5052653;28;20197;-78
2022/03/14 00:48:14;;;;;;;20.10;13.00;;;;;;;8.20;85.98;99159.03;5058441;28;20276;-79
2022/03/14 00:50:51;;;;;;;20.00;12.90;;;;;;;8.23;84.38;99164.13;5092489;28;20187;-78
2022/03/14 00:53:23;;;;;;;20.47;12.93;;;;;;;8.22;84.18;99162.44;5111382;28;20190;-78
2022/03/14 00:55:51;;;;;;;18.67;13.07;;;;;;;8.21;84.79;99162.53;5076923;28;20738;-78
2022/03/14 00:58:22;;;;;;;19.60;13.00;;;;;;;8.27;84.29;99165.66;5105625;28;20232;-78
2022/03/14 01:00:52;;;;;;;19.63;12.57;;;;;;;8.18;86.58;99170.56;5106765;28;20249;-78
2022/03/14 01:03:20;;;;;;;18.20;12.73;;;;;;;8.25;87.34;99170.16;5108895;28;20210;-78
2022/03/14 01:05:49;;;;;;;19.43;12.63;;;;;;;8.21;88.92;99179.19;5094821;28;20236;-78
2022/03/14 01:08:19;;;;;;;17.07;12.60;;;;;;;8.06;90.19;99193.19;5114961;28;20206;-78
2022/03/14 01:10:48;;;;;;;16.17;12.00;;;;;;;7.93;94.03;99198.28;5112908;28;20194;-78
2022/03/14 01:13:18;;;;;;;19.60;12.83;;;;;;;7.90;94.54;99208.13;5069040;28;20207;-79
2022/03/14 01:15:48;;;;;;;19.50;12.47;;;;;;;7.90;93.42;99213.38;5022964;28;20254;-79
2022/03/14 01:18:18;;;;;;;19.23;11.33;;;;;;;7.96;83.40;99227.13;5069851;28;20206;-79
2022/03/14 01:20:47;;;;;;;15.07;10.17;;;;;;;8.10;70.55;99215.81;5064595;28;20210;-79
2022/03/14 01:23:15;;;;;;;14.73;9.40;;;;;;;8.37;63.66;99224.09;5070135;28;20200;-79
2022/03/14 01:25:45;;;;;;;15.13;9.13;;;;;;;8.56;60.79;99229.22;5061829;28;20196;-79
2022/03/14 01:28:14;;;;;;;14.80;9.67;;;;;;;8.50;62.33;99226.94;5063773;28;20195;-79
2022/03/14 01:30:44;;;;;;;14.53;9.10;;;;;;;8.48;64.90;99239.34;5075447;28;20214;-79
2022/03/14 01:33:14;;;;;;;12.73;8.77;;;;;;;8.41;65.61;99244.13;5107685;28;20222;-79
2022/03/14 01:35:45;;;;;;;12.87;8.90;;;;;;;8.48;61.93;99234.06;5077193;28;20214;-79
2022/03/14 01:38:14;;;;;;;12.10;9.13;;;;;;;8.52;61.05;99244.41;5109169;28;20188;-79
2022/03/14 01:40:43;;;;;;;13.17;9.17;;;;;;;8.56;64.78;99239.78;5115019;28;20262;-79
2022/03/14 01:43:16;;;;;;;14.47;9.33;;;;;;;8.66;65.63;99233.06;5104977;28;20668;-79
2022/03/14 01:45:47;;;;;;;12.27;9.40;;;;;;;8.54;65.89;99234.59;5088160;28;20194;-79
2022/03/14 01:48:15;;;;;;;12.83;9.37;;;;;;;8.67;67.70;99231.28;5105873;28;20236;-79
2022/03/14 01:50:45;;;;;;;15.63;10.53;;;;;;;8.62;72.04;99239.47;5107638;28;20198;-79
2022/03/14 01:53:14;;;;;;;15.63;10.17;;;;;;;8.55;73.50;99241.56;5064855;28;20202;-79
2022/03/14 01:55:48;;;;;;;15.13;10.70;;;;;;;8.68;72.29;99235.63;5114713;28;20214;-79
2022/03/14 01:58:17;;;;;;;14.20;10.07;;;;;;;8.56;71.51;99226.59;5108346;28;20685;-79
2022/03/14 02:00:46;;;;;;;13.60;9.40;;;;;;;8.74;67.46;99217.66;5112870;28;20202;-79
2022/03/14 02:03:15;;;;;;;17.93;10.00;;;;;;;8.78;69.70;99213.94;5042510;28;20239;-79
2022/03/14 02:05:47;;;;;;;17.87;11.10;;;;;;;8.82;69.14;99212.81;5049197;28;20275;-79
2022/03/14 02:08:17;;;;;;;15.83;11.03;;;;;;;8.53;71.67;99221.47;5044234;28;20624;-79
2022/03/14 02:10:45;;;;;;;16.27;10.57;;;;;;;8.33;83.10;99217.25;5047628;28;20231;-79
2022/03/14 02:13:14;;;;;;;16.37;10.77;;;;;;;8.00;91.04;99222.53;5039703;28;20648;-79
2022/03/14 02:15:45;;;;;;;14.90;10.70;;;;;;;8.09;91.33;99235.22;5049706;28;20221;-79
2022/03/14 02:18:13;;;;;;;15.67;10.20;;;;;;;8.14;88.87;99222.66;5052075;28;20236;-79
2022/03/14 02:20:44;;;;;;;16.77;11.13;;;;;;;8.13;85.93;99233.31;5064193;27;20232;-79
2022/03/14 02:23:12;;;;;;;17.17;10.60;;;;;;;8.08;86.10;99236.16;5136986;27;20193;-79
2022/03/14 02:25:52;;;;;;;17.27;11.33;;;;;;;8.19;84.75;99228.53;5086667;27;20190;-79
2022/03/14 02:28:22;;;;;;;12.67;9.73;;;;;;;8.25;83.11;99230.00;5008528;28;20229;-79
2022/03/14 02:30:53;;;;;;;14.63;10.13;;;;;;;8.00;78.66;99236.56;5047302;28;20201;-80
2022/03/14 02:33:22;;;;;;;14.47;10.67;;;;;;;7.86;86.98;99278.63;5004208;28;20715;-80
2022/03/14 02:35:53;;;;;;;16.27;10.13;;;;;;;7.15;86.94;99301.50;5067734;28;20216;-78
2022/03/14 02:38:22;;;;;;;14.63;9.33;;;;;;;7.45;83.93;99302.66;5071231;28;20200;-78
2022/03/14 02:40:54;;;;;;;14.47;9.10;;;;;;;7.06;85.98;99313.31;5065974;28;20192;-79
2022/03/14 02:43:24;;;;;;;12.70;8.63;;;;;;;7.24;81.75;99329.16;5060505;28;20201;-78
2022/03/14 02:45:54;;;;;;;12.00;8.63;;;;;;;7.52;78.14;99326.91;5084480;27;20202;-79
2022/03/14 02:48:23;;;;;;;12.73;8.90;;;;;;;7.41;78.40;99327.44;5125820;27;20186;-78
2022/03/14 02:50:54;;;;;;;14.77;9.53;;;;;;;7.47;79.06;99332.41;5128162;27;20229;-79
2022/03/14 02:53:23;;;;;;;13.47;9.27;;;;;;;7.68;76.94;99340.19;5127692;27;20186;-78
2022/03/14 02:55:54;;;;;;;16.10;9.07;;;;;;;7.71;77.46;99351.44;5128557;27;20291;-79
2022/03/14 02:58:25;;;;;;;12.93;9.17;;;;;;;7.75;79.07;99366.19;5069746;28;20279;-79
2022/03/14 03:00:55;;;;;;;15.00;9.67;;;;;;;7.77;80.33;99373.16;5068358;28;20196;-78
2022/03/14 03:03:24;;;;;;;16.23;10.40;;;;;;;7.77;81.29;99371.38;5070924;28;20196;-78
2022/03/14 03:05:56;;;;;;;13.80;10.17;;;;;;;7.64;84.44;99386.94;5066741;28;20192;-79
2022/03/14 03:08:27;;;;;;;15.90;11.53;;;;;;;7.52;82.47;99418.28;5066576;28;20200;-79
2022/03/14 03:10:59;;;;;;;17.53;11.87;;;;;;;7.43;90.65;99402.00;5067237;28;20184;-78
2022/03/14 03:13:29;;;;;;;17.83;12.97;;;;;;;7.52;96.24;99398.06;5005214;28;20188;-78
2022/03/14 03:15:58;;;;;;;18.00;12.73;;;;;;;7.37;100.00;99407.56;5070961;28;20196;-79
2022/03/14 03:18:27;;;;;;;17.50;12.30;;;;;;;7.46;100.00;99393.94;5070708;28;20290;-79
2022/03/14 03:20:59;;;;;;;19.07;12.87;;;;;;;7.49;100.00;99403.47;5037769;28;20196;-77
2022/03/14 03:23:28;;;;;;;18.97;12.90;;;;;;;7.50;100.00;99410.47;5063989;28;20204;-79
2022/03/14 03:25:57;;;;;;;20.97;13.57;;;;;;;7.45;100.00;99407.22;5072133;28;20203;-79
2022/03/14 03:28:26;;;;;;;21.67;13.60;;;;;;;7.46;100.00;99414.19;5073848;27;20196;-78
2022/03/14 03:30:54;;;;;;;19.73;13.40;;;;;;;7.45;100.00;99413.34;5138250;27;20633;-79
2022/03/14 03:33:23;;;;;;;21.63;13.70;;;;;;;7.29;100.00;99411.47;5130915;27;20202;-78
2022/03/14 03:35:53;;;;;;;22.67;14.07;;;;;;;7.45;100.00;99417.75;5135135;27;20198;-79
2022/03/14 03:38:24;;;;;;;18.57;13.10;;;;;;;7.47;100.00;99432.56;5135001;27;20230;-78
2022/03/14 03:40:52;;;;;;;19.63;13.53;;;;;;;7.53;100.00;99426.16;5070057;28;20675;-79
2022/03/14 03:43:22;;;;;;;20.83;13.47;;;;;;;7.59;100.00;99425.84;5060000;28;20211;-79
2022/03/14 03:45:51;;;;;;;19.00;13.93;;;;;;;7.74;100.00;99435.66;5071714;28;20192;-78
2022/03/14 03:48:24;;;;;;;19.00;13.37;;;;;;;7.67;100.00;99444.78;5067223;28;20390;-79
2022/03/14 03:51:00;;;;;;;21.27;14.43;;;;;;;7.72;100.00;99452.47;5071458;28;20188;-79
2022/03/14 03:53:32;;;;;;;19.97;13.63;;;;;;;7.83;100.00;99459.88;5074915;28;20229;-78
2022/03/14 03:56:00;;;;;;;19.27;13.40;;;;;;;7.61;100.00;99454.75;5093112;28;20263;-79
2022/03/14 03:58:31;;;;;;;21.67;14.70;;;;;;;7.74;100.00;99462.03;5088488;28;20216;-79
2022/03/14 04:01:01;;;;;;;20.13;14.50;;;;;;;7.77;100.00;99478.63;5092108;28;20188;-79
2022/03/14 04:03:39;;;;;;;19.00;13.20;;;;;;;7.83;100.00;99488.91;5098092;28;20195;-78
2022/03/14 04:06:10;;;;;;;21.23;13.27;;;;;;;7.97;100.00;99483.81;5142997;27;20201;-79
2022/03/14 04:08:52;;;;;;;21.97;14.73;;;;;;;7.95;100.00;99493.56;5157655;27;20642;-79
2022/03/14 04:11:26;;;;;;;20.27;14.57;;;;;;;7.82;100.00;99488.03;5158140;27;20242;-78
2022/03/14 04:14:03;;;;;;;17.60;13.63;;;;;;;7.82;100.00;99495.97;5092716;28;20230;-78
2022/03/14 04:16:32;;;;;;;18.93;13.90;;;;;;;7.82;100.00;99490.69;5049131;28;20194;-79
2022/03/14 04:19:01;;;;;;;19.80;13.40;;;;;;;7.83;100.00;99494.16;5048325;28;20204;-78
2022/03/14 04:21:34;;;;;;;18.90;13.27;;;;;;;7.89;100.00;99497.34;5053811;28;20189;-79
2022/03/14 04:24:06;;;;;;;18.10;13.93;;;;;;;7.75;100.00;99503.28;5046900;28;20212;-78
2022/03/14 04:26:34;;;;;;;19.20;13.67;;;;;;;7.74;100.00;99496.31;5050994;28;20197;-79
2022/03/14 04:29:06;;;;;;;19.97;13.20;;;;;;;7.59;100.00;99514.59;5015711;28;20197;-78
2022/03/14 04:31:39;;;;;;;20.50;13.50;;;;;;;7.52;100.00;99500.00;5051483;28;20191;-78
2022/03/14 04:34:08;;;;;;;19.40;13.43;;;;;;;7.47;100.00;99500.22;5098455;28;20209;-79
2022/03/14 04:36:38;;;;;;;19.30;13.90;;;;;;;7.62;100.00;99499.50;5050341;28;20184;-81
2022/03/14 04:39:08;;;;;;;17.57;12.83;;;;;;;7.61;100.00;99505.69;5093842;28;20199;-78
2022/03/14 04:41:38;;;;;;;18.07;13.30;;;;;;;7.58;100.00;99518.16;5138587;27;20186;-78
2022/03/14 04:44:07;;;;;;;18.17;13.90;;;;;;;7.64;100.00;99510.00;5174762;27;20192;-78
2022/03/14 04:46:37;;;;;;;21.27;14.67;;;;;;;7.50;100.00;99517.66;5171238;27;20296;-78
2022/03/14 04:49:08;;;;;;;19.70;14.27;;;;;;;7.37;100.00;99525.28;5175279;27;20333;-78
2022/03/14 04:51:40;;;;;;;18.30;14.03;;;;;;;7.34;100.00;99526.28;5178011;27;20193;-78
2022/03/14 04:54:10;;;;;;;20.43;14.77;;;;;;;7.28;100.00;99531.81;5175171;27;20249;-78
2022/03/14 04:56:38;;;;;;;23.27;13.97;;;;;;;7.25;100.00;99528.47;5174295;27;20200;-78
2022/03/14 04:59:07;;;;;;;18.90;14.30;;;;;;;7.19;100.00;99540.13;5118392;27;20216;-78
2022/03/14 05:01:40;;;;;;;19.43;13.90;;;;;;;7.29;100.00;99545.84;5169853;27;20304;-78
2022/03/14 05:04:09;;;;;;;19.97;14.17;;;;;;;7.18;100.00;99544.53;5173435;27;20260;-78
2022/03/14 05:06:38;;;;;;;20.23;13.63;;;;;;;7.10;100.00;99551.06;5177736;27;20193;-78
2022/03/14 05:09:07;;;;;;;18.37;13.80;;;;;;;7.07;100.00;99559.97;5172013;27;20196;-78
2022/03/14 05:11:42;;;;;;;19.87;12.93;;;;;;;7.04;100.00;99570.59;5174218;27;20201;-78
2022/03/14 05:14:13;;;;;;;20.63;13.57;;;;;;;7.03;100.00;99566.25;5177677;27;20191;-78
2022/03/14 05:16:41;;;;;;;21.33;13.33;;;;;;;7.06;100.00;99566.16;5156213;27;20193;-78
2022/03/14 05:19:10;;;;;;;18.63;13.00;;;;;;;6.98;100.00;99570.03;5168281;27;20216;-78
2022/03/14 05:21:39;;;;;;;19.00;13.23;;;;;;;6.99;100.00;99571.75;5172005;27;20193;-78
2022/03/14 05:24:09;;;;;;;18.40;13.13;;;;;;;6.95;100.00;99576.28;5166901;27;20201;-78
2022/03/14 05:26:39;;;;;;;17.80;12.57;;;;;;;6.98;100.00;99568.25;5130418;27;20194;-78
2022/03/14 05:29:12;;;;;;;18.90;13.30;;;;;;;6.95;100.00;99573.66;5128123;27;20271;-78
2022/03/14 05:31:44;;;;;;;19.20;12.97;;;;;;;6.93;100.00;99580.75;5130195;27;20266;-78
2022/03/14 05:34:14;;;;;;;18.33;13.40;;;;;;;6.62;100.00;99585.59;5128377;27;20194;-78
2022/03/14 05:36:43;;;;;;;21.97;15.00;;;;;;;6.47;100.00;99589.72;5130550;27;20187;-78
2022/03/14 05:39:11;;;;;;;21.93;13.77;;;;;;;6.27;100.00;99604.50;5132189;27;20218;-78
2022/03/14 05:41:44;;;;;;;20.50;14.57;;;;;;;6.46;100.00;99599.34;5128908;27;20191;-78
2022/03/14 05:44:13;;;;;;;21.13;14.73;;;;;;;6.70;100.00;99604.56;5141861;27;20309;-78
2022/03/14 05:46:42;;;;;;;20.40;13.87;;;;;;;6.67;100.00;99623.13;5173076;27;20217;-78
2022/03/14 05:49:15;;;;;;;18.83;13.33;;;;;;;6.53;100.00;99624.50;5176837;27;20200;-78
2022/03/14 05:51:43;;;;;;;18.37;13.93;;;;;;;6.60;100.00;99630.41;5123096;27;20268;-79
2022/03/14 05:54:12;;;;;;;20.00;14.13;;;;;;;6.34;100.00;99630.56;5173798;27;20197;-78
2022/03/14 05:56:43;;;;;;;20.00;15.23;;;;;;;6.09;100.00;99641.19;5175929;27;20204;-78
2022/03/14 05:59:11;;;;;;;20.37;14.20;;;;;;;5.96;100.00;99651.28;5169705;27;20213;-78
2022/03/14 06:01:41;;;;;;;21.03;15.77;;;;;;;6.19;100.00;99653.94;5171359;27;20189;-78
2022/03/14 06:04:10;;;;;;;20.27;14.90;;;;;;;6.26;100.00;99646.63;5118468;27;20647;-78
2022/03/14 06:06:40;;;;;;;22.17;14.80;;;;;;;6.50;100.00;99645.69;5176741;27;20189;-78
2022/03/14 06:09:11;;;;;;;23.07;15.13;;;;;;;6.55;100.00;99658.66;5173742;27;20193;-78
2022/03/14 06:11:42;;;;;;;19.70;14.00;;;;;;;6.59;100.00;99658.50;5087045;27;20490;-78
2022/03/14 06:14:13;;;;;;;18.97;12.57;;;;;;;6.53;100.00;99663.97;5166867;27;20200;-79
2022/03/14 06:16:43;;;;;;;18.60;12.30;;;;;;;6.52;100.00;99670.16;5088048;27;20211;-78
2022/03/14 06:19:12;;;;;;;16.33;12.87;;;;;;;6.55;100.00;99672.66;5170263;27;20212;-78
2022/03/14 06:21:40;;;;;;;19.83;13.30;;;;;;;6.40;100.00;99675.91;5173292;27;20193;-78
2022/03/14 06:24:09;;;;;;;17.37;12.57;;;;;;;6.40;100.00;99678.53;5121751;27;20193;-78
2022/03/14 06:26:37;;;;;;;17.57;13.03;;;;;;;6.24;100.00;99680.03;5161158;27;20233;-78
2022/03/14 06:29:08;;;;;;;18.33;14.00;;;;;;;6.10;100.00;99682.34;5117706;27;20200;-79
2022/03/14 06:31:37;;;;;;;21.17;13.23;;;;;;;6.07;100.00;99692.94;5170952;27;20181;-78
2022/03/14 06:34:05;;;;;;;21.50;13.47;;;;;;;5.91;100.00;99698.78;5166935;27;20201;-78
2022/03/14 06:36:34;;;;;;;20.37;13.17;;;;;;;5.91;100.00;99693.53;5168721;27;20181;-78
2022/03/14 06:39:03;;;;;;;18.77;13.10;;;;;;;6.13;100.00;99690.97;5166897;27;20253;-78
2022/03/14 06:41:39;;;;;;;19.93;13.83;;;;;;;5.96;100.00;99704.72;5173642;27;20189;-78
2022/03/14 06:44:08;;;;;;;18.63;13.50;;;;;;;6.02;100.00;99708.91;5173159;27;20678;-78
2022/03/14 06:46:37;;;;;;;19.47;12.80;;;;;;;6.00;100.00;99713.38;5167659;27;20215;-79
2022/03/14 06:49:06;;;;;;;18.07;13.93;;;;;;;6.08;100.00;99702.56;5169528;27;20216;-79
2022/03/14 06:51:37;;;;;;;18.70;13.80;;;;;;;6.11;100.00;99703.31;5166949;27;20249;-79
2022/03/14 06:54:05;;;;;;;18.93;13.30;;;;;;;6.13;100.00;99716.41;5170706;27;20196;-78
2022/03/14 06:56:34;;;;;;;18.73;14.03;;;;;;;6.20;100.00;99718.75;5173175;27;20186;-78
2022/03/14 06:59:02;;;;;;;17.20;13.53;;;;;;;6.15;100.00;99720.69;5163769;27;20223;-78
2022/03/14 07:01:32;;;;;;;21.50;13.67;;;;;;;6.08;100.00;99727.13;5167802;27;20185;-79
2022/03/14 07:04:02;;;;;;;20.37;13.97;;;;;;;6.10;100.00;99734.94;5164944;27;20204;-78
2022/03/14 07:06:32;;;;;;;17.93;13.43;;;;;;;6.08;100.00;99740.25;5167645;27;20185;-78
2022/03/14 07:09:03;;;;;;;19.00;13.80;;;;;;;5.94;100.00;99740.75;5062427;28;20192;-79
2022/03/14 07:11:32;;;;;;;21.63;14.03;;;;;;;6.01;100.00;99731.72;5062658;28;20386;-79
2022/03/14 07:14:01;;;;;;;18.77;13.83;;;;;;;6.08;100.00;99735.00;5063958;28;20192;-79
2022/03/14 07:16:31;;;;;;;18.93;13.80;;;;;;;6.05;100.00;99731.59;5061718;28;20184;-79
2022/03/14 07:19:00;;;;;;;16.20;12.43;;;;;;;6.12;100.00;99744.47;5068581;28;20219;-79
2022/03/14 07:21:29;;;;;;;19.13;13.03;;;;;;;6.12;100.00;99749.75;5062172;28;20196;-79
2022/03/14 07:23:57;;;;;;;17.57;13.80;;;;;;;6.07;100.00;99749.03;5063381;28;20192;-79
2022/03/14 07:26:26;;;;;;;20.67;14.23;;;;;;;6.19;100.00;99764.38;5063458;28;20199;-79
2022/03/14 07:28:54;;;;;;;20.17;13.77;;;;;;;5.90;100.00;99769.81;5066839;28;20222;-79
2022/03/14 07:31:23;;;;;;;21.93;13.73;;;;;;;6.15;100.00;99767.16;5068984;28;20725;-79
2022/03/14 07:33:53;;;;;;;16.40;13.40;;;;;;;6.15;100.00;99768.03;5061240;28;20198;-79
2022/03/14 07:36:21;;;;;;;17.63;13.90;;;;;;;6.09;100.00;99773.53;5066349;28;20192;-79
2022/03/14 07:38:50;;;;;;;18.93;14.17;;;;;;;6.09;100.00;99770.03;5064902;28;20216;-79
2022/03/14 07:41:19;;;;;;;19.47;14.07;;;;;;;6.19;100.00;99781.94;5066806;28;20203;-79
2022/03/14 07:43:47;;;;;;;19.70;14.83;;;;;;;6.25;100.00;99782.56;5057120;28;20204;-79
2022/03/14 07:46:16;;;;;;;21.23;15.17;;;;;;;6.29;100.00;99793.84;5097762;27;20219;-79
2022/03/14 07:48:44;;;;;;;19.00;14.83;;;;;;;6.38;100.00;99796.16;5172229;27;20193;-79
2022/03/14 07:51:13;;;;;;;27.10;18.93;;;;;;;6.40;100.00;99804.84;5169789;27;20196;-79
2022/03/14 07:53:42;;;;;;;23.37;16.53;;;;;;;6.49;100.00;99801.00;5165968;27;20196;-80
2022/03/14 07:56:13;;;;;;;24.67;15.80;;;;;;;6.74;100.00;99811.47;5168403;27;20218;-78
2022/03/14 07:58:42;;;;;;;20.03;15.67;;;;;;;6.75;100.00;99803.50;5164596;27;20209;-78
2022/03/14 08:01:10;;;;;;;27.30;18.73;;;;;;;7.02;100.00;99806.00;5175239;27;20197;-79
2022/03/14 08:03:40;;;;;;;24.97;17.07;;;;;;;6.77;100.00;99817.50;5172168;27;20217;-79
2022/03/14 08:06:10;;;;;;;21.73;16.53;;;;;;;6.68;100.00;99827.50;5164261;27;20286;-78
2022/03/14 08:08:40;;;;;;;27.20;17.37;;;;;;;6.77;100.00;99816.63;5169396;27;20213;-78
2022/03/14 08:11:08;;;;;;;24.37;16.37;;;;;;;7.04;100.00;99831.34;5169314;27;20201;-78
2022/03/14 08:13:37;;;;;;;22.70;16.60;;;;;;;6.98;100.00;99834.25;5173850;27;20199;-79
2022/03/14 08:16:06;;;;;;;25.77;17.20;;;;;;;6.91;100.00;99834.53;5174106;27;20196;-79
2022/03/14 08:18:34;;;;;;;24.90;15.63;;;;;;;6.94;100.00;99845.78;5173040;27;20200;-79
2022/03/14 08:21:03;;;;;;;26.83;18.17;;;;;;;7.23;100.00;99849.06;5171155;27;20231;-78
2022/03/14 08:23:32;;;;;;;27.03;17.17;;;;;;;7.30;100.00;99855.81;5173686;27;20208;-78
2022/03/14 08:26:02;;;;;;;20.70;14.83;;;;;;;7.13;100.00;99859.97;5173138;27;20197;-78
2022/03/14 08:28:32;;;;;;;20.37;14.90;;;;;;;7.10;100.00;99860.09;5167511;27;20212;-78
2022/03/14 08:31:00;;;;;;;22.10;14.87;;;;;;;7.28;100.00;99863.81;5171562;27;20235;-78
2022/03/14 08:33:30;;;;;;;22.57;15.27;;;;;;;7.47;100.00;99861.28;5173592;27;20185;-78
2022/03/14 08:36:00;;;;;;;20.23;15.13;;;;;;;7.52;100.00;99867.22;5174021;27;20191;-78
2022/03/14 08:38:29;;;;;;;19.10;14.20;;;;;;;7.65;100.00;99865.84;5170074;27;20711;-78
2022/03/14 08:40:57;;;;;;;17.87;14.03;;;;;;;7.80;100.00;99879.28;5174055;27;20213;-78
2022/03/14 08:43:28;;;;;;;19.93;14.93;;;;;;;7.68;100.00;99878.88;5177389;27;20252;-78
2022/03/14 08:45:57;;;;;;;20.63;14.13;;;;;;;7.64;100.00;99887.84;5174010;27;20203;-78
2022/03/14 08:48:25;;;;;;;19.87;13.57;;;;;;;7.50;100.00;99894.56;5173790;27;20201;-78
2022/03/14 08:50:54;;;;;;;16.50;13.37;;;;;;;7.51;100.00;99898.91;5174426;27;20644;-78
2022/03/14 08:53:23;;;;;;;18.60;12.47;;;;;;;7.61;100.00;99900.28;5168887;27;20204;-79
2022/03/14 08:55:53;;;;;;;17.90;12.50;;;;;;;7.77;100.00;99908.44;5173024;27;20191;-79
2022/03/14 08:58:21;;;;;;;20.70;13.33;;;;;;;7.55;100.00;99908.44;5174013;27;20196;-78
2022/03/14 09:00:51;;;;;;;17.50;12.50;;;;;;;7.83;100.00;99913.47;5173180;27;20213;-78
2022/03/14 09:03:20;;;;;;;17.80;12.63;;;;;;;7.90;100.00;99914.91;5173096;27;20196;-78
2022/03/14 09:05:48;;;;;;;17.43;12.23;;;;;;;7.82;100.00;99917.91;5124597;27;20193;-78
2022/03/14 09:08:18;;;;;;;18.30;11.50;;;;;;;7.94;100.00;99919.16;5173051;27;20286;-78
2022/03/14 09:10:46;;;;;;;17.00;10.97;;;;;;;7.97;100.00;99927.78;5173582;27;20257;-78
2022/03/14 09:13:16;;;;;;;17.13;10.97;;;;;;;8.06;100.00;99933.63;5172831;27;20193;-78
2022/03/14 09:15:47;;;;;;;16.33;10.47;;;;;;;8.09;100.00;99930.84;5166710;27;20220;-78
2022/03/14 09:18:17;;;;;;;15.80;11.77;;;;;;;8.06;100.00;99928.34;5174627;27;20193;-78
2022/03/14 09:20:46;;;;;;;19.07;10.97;;;;;;;8.19;100.00;99943.59;5168061;27;20220;-79
2022/03/14 09:23:14;;;;;;;10.53;6.07;;;;;;;8.24;100.00;99946.91;5175098;27;20203;-78
2022/03/14 09:25:42;;;;;;;9.37;6.20;;;;;;;8.35;100.00;99950.91;5169432;27;20189;-78
2022/03/14 09:28:11;;;;;;;5.57;5.00;;;;;;;8.30;100.00;99954.59;5166666;27;20201;-78
2022/03/14 09:30:39;;;;;;;7.07;4.37;;;;;;;8.27;100.00;99954.69;5168163;27;20193;-78
2022/03/14 09:33:08;;;;;;;7.27;4.27;;;;;;;8.32;100.00;99959.78;5169140;27;20204;-78
2022/03/14 09:35:38;;;;;;;7.80;4.13;;;;;;;8.49;100.00;99962.63;5173914;27;20201;-78
2022/03/14 09:38:09;;;;;;;7.47;4.53;;;;;;;8.46;100.00;99961.88;5174819;27;20185;-78
2022/03/14 09:40:37;;;;;;;10.13;4.47;;;;;;;8.50;100.00;99969.63;5179325;27;20221;-79
2022/03/14 09:43:06;;;;;;;6.87;4.17;;;;;;;8.46;100.00;99962.72;5171469;27;20204;-78
2022/03/14 09:45:37;;;;;;;13.97;7.40;;;;;;;8.36;100.00;99974.59;5165419;27;20264;-78
2022/03/14 09:48:06;;;;;;;22.97;15.30;;;;;;;8.29;100.00;99962.53;5167486;27;20224;-78
2022/03/14 09:50:39;;;;;;;18.20;9.57;;;;;;;8.32;100.00;99967.72;5167733;27;20223;-79
2022/03/14 09:53:09;;;;;;;8.80;6.20;;;;;;;8.31;100.00;99969.50;5173854;27;20639;-78
2022/03/14 09:55:40;;;;;;;13.97;8.13;;;;;;;8.45;100.00;99982.13;5172764;27;20197;-78
2022/03/14 09:58:10;;;;;;;8.17;4.63;;;;;;;8.52;100.00;99980.09;5169534;27;20734;-79
2022/03/14 10:00:38;;;;;;;8.00;5.30;;;;;;;8.46;100.00;99983.84;5177126;27;20208;-79
2022/03/14 10:03:13;;;;;;;7.17;3.70;;;;;;;8.58;100.00;99977.19;5172678;27;20196;-78
2022/03/14 10:05:44;;;;;;;24.17;14.90;;;;;;;8.55;100.00;99987.88;5076428;28;20192;-79
2022/03/14 10:08:13;;;;;;;8.00;4.70;;;;;;;8.63;100.00;99984.94;5086159;28;20191;-79
2022/03/14 10:10:43;;;;;;;19.83;11.03;;;;;;;8.61;100.00;99985.00;5090057;28;20199;-78
2022/03/14 10:13:33;;;;;;;19.90;9.17;;;;;;;8.72;100.00;99987.19;5090946;28;20293;-79
2022/03/14 10:16:03;;;;;;;22.13;9.97;;;;;;;8.72;100.00;99987.19;5084108;28;20190;-79
2022/03/14 10:18:36;;;;;;;25.57;10.33;;;;;;;8.82;100.00;99986.72;5092038;28;20227;-79
2022/03/14 10:21:10;;;;;;;20.47;8.83;;;;;;;8.95;100.00;99978.25;5088390;28;20222;-78
2022/03/14 10:23:43;;;;;;;9.07;4.67;;;;;;;9.13;100.00;99980.06;5123587;27;20193;-79
2022/03/14 10:26:12;;;;;;;14.60;9.73;;;;;;;9.13;100.00;99986.22;5166251;27;20204;-78
2022/03/14 10:28:41;;;;;;;11.57;6.97;;;;;;;9.10;100.00;99982.84;5167309;27;20640;-78
2022/03/14 10:31:31;;;;;;;5.50;2.87;;;;;;;9.37;100.00;99989.53;5176438;27;20220;-79
2022/03/14 10:34:05;;;;;;;8.27;3.80;;;;;;;9.65;100.00;99991.78;5172180;27;20189;-79
2022/03/14 10:36:45;;;;;;;4.63;3.10;;;;;;;9.44;100.00;99993.59;5168438;27;20214;-79
2022/03/14 10:39:15;;;;;;;12.47;6.80;;;;;;;9.27;100.00;99995.31;5170409;27;20284;-79
2022/03/14 10:41:47;;;;;;;4.83;2.80;;;;;;;9.50;100.00;100005.69;5169567;27;20220;-78
2022/03/14 10:44:36;;;;;;;5.60;3.03;;;;;;;9.57;100.00;99995.69;5176308;27;20197;-79
2022/03/14 10:47:07;;;;;;;10.33;5.57;;;;;;;9.43;100.00;99994.53;5168067;27;20229;-79
2022/03/14 10:49:36;;;;;;;10.33;4.70;;;;;;;9.37;100.00;100000.13;5166715;27;20197;-78
2022/03/14 10:52:09;;;;;;;7.37;3.90;;;;;;;9.54;100.00;99993.19;5174610;27;20196;-79
2022/03/14 10:54:39;;;;;;;4.77;2.50;;;;;;;9.48;100.00;99994.34;5171882;27;20200;-79
2022/03/14 10:57:09;;;;;;;7.97;4.67;;;;;;;9.48;100.00;99994.34;5169359;27;20200;-79
2022/03/14 10:59:40;;;;;;;6.47;2.40;;;;;;;9.71;100.00;99998.53;5167684;27;20201;-78
2022/03/14 11:02:10;;;;;;;9.33;3.57;;;;;;;9.82;100.00;99990.97;5175582;27;20280;-78
2022/03/14 11:04:44;;;;;;;7.97;3.33;;;;;;;9.75;100.00;99994.84;5166334;27;20222;-78
2022/03/14 11:07:14;;;;;;;5.83;3.20;;;;;;;10.01;100.00;99996.22;5164885;27;20196;-79
2022/03/14 11:09:45;;;;;;;8.60;4.20;;;;;;;9.99;100.00;99992.81;5170097;27;20197;-78
2022/03/14 11:12:15;;;;;;;7.00;2.40;;;;;;;10.13;100.00;99990.34;5170258;27;20200;-79
2022/03/14 11:14:51;;;;;;;4.83;2.60;;;;;;;10.01;100.00;99993.59;5173473;27;20204;-79
2022/03/14 11:17:22;;;;;;;4.30;2.20;;;;;;;10.07;100.00;99990.66;5136030;27;20188;-80
2022/03/14 11:19:55;;;;;;;3.83;1.97;;;;;;;10.18;100.00;100004.22;5170587;27;20185;-79
2022/03/14 11:22:27;;;;;;;3.97;3.00;;;;;;;10.08;100.00;99996.81;5176509;27;20216;-79
2022/03/14 11:24:57;;;;;;;5.10;2.60;;;;;;;10.13;100.00;99992.97;5166150;27;20204;-78
2022/03/14 11:27:36;;;;;;;4.83;2.20;;;;;;;10.22;100.00;99999.66;5172036;27;20188;-79
2022/03/14 11:30:08;;;;;;;4.87;1.83;;;;;;;10.32;100.00;100001.75;5168367;27;20200;-79
2022/03/14 11:32:41;;;;;;;5.37;2.10;;;;;;;10.45;100.00;99998.53;5173502;27;20279;-80
2022/03/14 11:35:10;;;;;;;3.30;2.07;;;;;;;10.49;100.00;100005.38;5173048;27;20231;-79